createdAt,value
2019-05-22T00:00:20.463Z,12.80
2019-05-22T00:02:50.899Z,12.70
2019-05-22T00:05:29.134Z,12.70
2019-05-22T00:08:01.256Z,12.70
2019-05-22T00:10:34.253Z,12.70
2019-05-22T00:13:07.159Z,12.60
2019-05-22T00:15:40.110Z,12.60
2019-05-22T00:18:12.021Z,12.60
2019-05-22T00:20:44.264Z,12.50
2019-05-22T00:23:17.603Z,12.50
2019-05-22T00:25:49.060Z,12.40
2019-05-22T00:28:19.466Z,12.40
2019-05-22T00:30:51.670Z,12.30
2019-05-22T00:33:22.084Z,12.30
2019-05-22T00:35:56.841Z,12.30
2019-05-22T00:38:29.061Z,12.30
2019-05-22T00:41:03.279Z,12.20
2019-05-22T00:43:39.563Z,12.20
2019-05-22T00:46:12.253Z,12.30
2019-05-22T00:48:44.227Z,12.20
2019-05-22T00:51:35.455Z,12.20
2019-05-22T00:54:38.796Z,12.20
2019-05-22T00:57:15.228Z,12.10
2019-05-22T00:59:56.579Z,12.10
2019-05-22T01:02:30.430Z,12.10
2019-05-22T01:05:02.794Z,12.10
2019-05-22T01:07:37.350Z,12.10
2019-05-22T01:10:11.931Z,12.10
2019-05-22T01:12:44.213Z,12.00
2019-05-22T01:15:21.232Z,12.00
2019-05-22T01:17:52.075Z,12.00
2019-05-22T01:20:25.637Z,12.00
2019-05-22T01:22:58.699Z,11.90
2019-05-22T01:25:31.104Z,11.90
2019-05-22T01:28:02.124Z,11.90
2019-05-22T01:30:51.118Z,11.90
2019-05-22T01:33:25.898Z,11.80
2019-05-22T01:36:14.816Z,11.80
2019-05-22T01:38:47.669Z,11.80
2019-05-22T01:41:26.976Z,11.80
2019-05-22T01:44:02.455Z,11.80
2019-05-22T01:46:36.469Z,11.80
2019-05-22T01:49:10.313Z,11.70
2019-05-22T01:51:42.588Z,11.70
2019-05-22T01:54:14.888Z,11.70
2019-05-22T01:56:46.125Z,11.70
2019-05-22T01:59:18.505Z,11.70
2019-05-22T02:01:49.932Z,11.70
2019-05-22T02:04:22.028Z,11.60
2019-05-22T02:06:53.200Z,11.60
2019-05-22T02:09:31.024Z,11.60
2019-05-22T02:12:10.211Z,11.60
2019-05-22T02:14:44.645Z,11.60
2019-05-22T02:17:18.314Z,11.70
2019-05-22T02:19:50.354Z,11.60
2019-05-22T02:22:22.068Z,11.60
2019-05-22T02:24:53.626Z,11.60
2019-05-22T02:27:26.306Z,11.60
2019-05-22T02:29:59.298Z,11.60
2019-05-22T02:32:31.941Z,11.60
2019-05-22T02:35:02.737Z,11.60
2019-05-22T02:37:35.490Z,11.60
2019-05-22T02:40:09.144Z,11.60
2019-05-22T02:42:40.522Z,11.60
2019-05-22T02:45:11.331Z,11.70
2019-05-22T02:47:43.390Z,11.70
2019-05-22T02:50:14.967Z,11.70
2019-05-22T02:52:45.800Z,11.70
2019-05-22T02:55:17.060Z,11.70
2019-05-22T02:57:48.195Z,11.70
2019-05-22T03:00:19.765Z,11.80
2019-05-22T03:02:53.702Z,11.80
2019-05-22T03:05:25.159Z,11.90
2019-05-22T03:07:55.891Z,12.20
2019-05-22T03:10:27.381Z,12.50
2019-05-22T03:12:59.268Z,12.90
2019-05-22T03:15:29.827Z,13.10
2019-05-22T03:18:04.902Z,13.10
2019-05-22T03:20:35.945Z,13.00
2019-05-22T03:23:36.712Z,12.80
2019-05-22T03:26:10.539Z,12.80
2019-05-22T03:28:42.115Z,12.60
2019-05-22T03:31:13.713Z,12.60
2019-05-22T03:33:44.766Z,12.60
2019-05-22T03:36:18.221Z,12.50
2019-05-22T03:38:49.300Z,12.50
2019-05-22T03:41:20.820Z,12.50
2019-05-22T03:43:53.458Z,12.50
2019-05-22T03:46:49.718Z,12.60
2019-05-22T03:49:29.877Z,12.60
2019-05-22T03:51:53.736Z,12.70
2019-05-22T03:54:25.904Z,12.90
2019-05-22T03:56:57.330Z,13.40
2019-05-22T03:59:28.216Z,13.90
2019-05-22T04:02:00.370Z,14.20
2019-05-22T04:04:39.463Z,14.50
2019-05-22T04:07:14.271Z,14.70
2019-05-22T04:09:46.189Z,14.90
2019-05-22T04:12:16.821Z,15.10
2019-05-22T04:14:47.179Z,15.10
2019-05-22T04:17:17.838Z,15.40
2019-05-22T04:19:51.669Z,15.60
2019-05-22T04:22:21.684Z,15.60
2019-05-22T04:24:52.511Z,15.80
2019-05-22T04:27:23.105Z,16.10
2019-05-22T04:29:58.266Z,16.20
2019-05-22T04:32:31.853Z,16.70
2019-05-22T04:35:05.050Z,17.10
2019-05-22T04:37:35.616Z,17.30
2019-05-22T04:40:54.339Z,17.60
2019-05-22T04:43:31.019Z,17.80
2019-05-22T04:46:03.752Z,17.70
2019-05-22T04:48:36.466Z,17.50
2019-05-22T04:51:41.936Z,17.80
2019-05-22T04:54:12.471Z,17.40
2019-05-22T04:56:44.176Z,17.70
2019-05-22T04:59:16.919Z,17.70
2019-05-22T05:01:47.526Z,17.70
2019-05-22T05:04:18.834Z,17.40
2019-05-22T05:06:50.052Z,17.00
2019-05-22T05:09:21.432Z,17.00
2019-05-22T05:11:52.424Z,16.80
2019-05-22T05:14:23.151Z,16.50
2019-05-22T05:16:53.524Z,16.40
2019-05-22T05:19:24.750Z,16.20
2019-05-22T05:21:55.614Z,15.90
2019-05-22T05:24:25.912Z,15.90
2019-05-22T05:26:56.970Z,15.70
2019-05-22T05:29:33.265Z,15.70
2019-05-22T05:32:04.228Z,15.70
2019-05-22T05:34:57.437Z,15.70
2019-05-22T05:37:28.257Z,15.50
2019-05-22T05:40:36.390Z,15.50
2019-05-22T05:43:09.060Z,15.50
2019-05-22T05:45:41.080Z,15.60
2019-05-22T05:48:14.048Z,15.60
2019-05-22T05:51:22.294Z,15.70
2019-05-22T05:54:08.426Z,16.10
2019-05-22T05:56:40.916Z,16.60
2019-05-22T05:59:14.185Z,16.90
2019-05-22T06:02:05.257Z,16.80
2019-05-22T06:04:39.824Z,16.50
2019-05-22T06:07:24.294Z,16.40
2019-05-22T06:10:22.378Z,16.50
2019-05-22T06:12:53.606Z,16.60
2019-05-22T06:15:45.840Z,16.30
2019-05-22T06:18:35.544Z,16.10
2019-05-22T06:21:09.888Z,16.00
2019-05-22T06:24:17.962Z,15.90
2019-05-22T06:27:19.123Z,16.00
2019-05-22T06:29:59.387Z,15.90
2019-05-22T06:33:23.290Z,15.80
2019-05-22T06:35:55.548Z,15.80
2019-05-22T06:39:03.126Z,15.90
2019-05-22T06:41:37.492Z,15.90
2019-05-22T06:44:41.124Z,15.90
2019-05-22T06:47:15.906Z,16.00
2019-05-22T06:49:51.599Z,15.80
2019-05-22T06:52:22.751Z,15.80
2019-05-22T06:54:54.123Z,15.70
2019-05-22T06:57:37.483Z,15.80
2019-05-22T07:00:15.448Z,15.80
2019-05-22T07:02:46.220Z,15.90
2019-05-22T07:05:17.735Z,16.20
2019-05-22T07:07:48.919Z,16.40
2019-05-22T07:10:20.959Z,16.40
2019-05-22T07:12:52.049Z,16.40
2019-05-22T07:15:34.179Z,16.10
2019-05-22T07:18:05.762Z,16.00
2019-05-22T07:20:39.076Z,16.00
2019-05-22T07:23:13.088Z,16.00
2019-05-22T07:25:44.516Z,16.00
2019-05-22T07:28:19.456Z,16.00
2019-05-22T07:30:51.172Z,15.90
2019-05-22T07:33:23.787Z,16.00
2019-05-22T07:36:09.271Z,16.10
2019-05-22T07:38:28.349Z,16.20
2019-05-22T07:40:59.518Z,16.20
2019-05-22T07:43:29.936Z,16.50
2019-05-22T07:46:00.662Z,16.50
2019-05-22T07:48:32.376Z,16.60
2019-05-22T07:51:03.466Z,16.60
2019-05-22T07:53:33.856Z,16.60
2019-05-22T07:56:09.698Z,16.50
2019-05-22T07:58:41.524Z,16.40
2019-05-22T08:01:12.116Z,16.30
2019-05-22T08:03:45.339Z,16.20
2019-05-22T08:06:16.850Z,16.20
2019-05-22T08:08:49.387Z,16.20
2019-05-22T08:11:21.186Z,16.20
2019-05-22T08:13:52.467Z,16.20
2019-05-22T08:16:24.469Z,16.30
2019-05-22T08:18:54.817Z,16.20
2019-05-22T08:21:25.801Z,16.20
2019-05-22T08:23:56.993Z,16.40
2019-05-22T08:26:29.182Z,16.50
2019-05-22T08:29:01.673Z,16.50
2019-05-22T08:31:32.785Z,16.60
2019-05-22T08:34:05.506Z,16.70
2019-05-22T08:36:38.716Z,16.70
2019-05-22T08:39:12.968Z,16.70
2019-05-22T08:41:44.424Z,16.60
2019-05-22T08:44:17.451Z,16.60
2019-05-22T08:46:49.865Z,16.60
2019-05-22T08:49:20.679Z,16.70
2019-05-22T08:51:51.323Z,16.90
2019-05-22T08:54:22.005Z,17.00
2019-05-22T08:56:54.963Z,17.10
2019-05-22T08:59:26.050Z,17.00
2019-05-22T09:01:57.918Z,16.90
2019-05-22T09:04:29.346Z,16.80
2019-05-22T09:06:59.820Z,16.70
2019-05-22T09:09:30.573Z,16.70
2019-05-22T09:12:01.356Z,16.70
2019-05-22T09:14:32.069Z,16.60
2019-05-22T09:17:03.028Z,16.30
2019-05-22T09:19:34.409Z,16.00
2019-05-22T09:22:07.011Z,15.90
2019-05-22T09:24:39.004Z,15.90
2019-05-22T09:27:12.355Z,16.00
2019-05-22T09:29:42.688Z,16.20
2019-05-22T09:32:13.454Z,16.40
2019-05-22T09:34:43.793Z,16.60
2019-05-22T09:37:14.406Z,16.70
2019-05-22T09:39:45.083Z,16.60
2019-05-22T09:42:16.424Z,16.50
2019-05-22T09:44:46.736Z,16.20
2019-05-22T09:47:19.796Z,16.10
2019-05-22T09:49:50.493Z,15.80
2019-05-22T09:52:22.512Z,15.50
2019-05-22T09:54:53.378Z,15.40
2019-05-22T09:57:23.940Z,15.30
2019-05-22T09:59:54.893Z,15.40
2019-05-22T10:02:27.001Z,15.50
2019-05-22T10:04:57.434Z,15.70
2019-05-22T10:07:27.762Z,15.80
2019-05-22T10:09:58.147Z,16.00
2019-05-22T10:12:29.642Z,16.00
2019-05-22T10:15:00.166Z,16.00
2019-05-22T10:17:31.476Z,16.10
2019-05-22T10:20:02.638Z,16.20
2019-05-22T10:22:34.341Z,16.20
2019-05-22T10:25:15.867Z,16.20
2019-05-22T10:27:40.465Z,16.30
2019-05-22T10:30:13.789Z,16.30
2019-05-22T10:32:44.444Z,16.30
2019-05-22T10:35:16.352Z,16.30
2019-05-22T10:37:47.451Z,16.40
2019-05-22T10:40:18.914Z,16.50
2019-05-22T10:42:49.778Z,16.60
2019-05-22T10:47:50.621Z,16.90
2019-05-22T10:50:22.358Z,16.90
2019-05-22T10:52:54.383Z,16.80
2019-05-22T10:55:26.666Z,16.80
2019-05-22T10:57:58.222Z,16.80
2019-05-22T11:00:29.928Z,16.70
2019-05-22T11:03:01.322Z,16.70
2019-05-22T11:05:31.882Z,16.70
2019-05-22T11:08:02.626Z,16.70
2019-05-22T11:10:33.513Z,16.60
2019-05-22T11:13:05.225Z,16.60
2019-05-22T11:15:36.393Z,16.70
2019-05-22T11:18:07.263Z,16.70
2019-05-22T11:20:37.867Z,16.80
2019-05-22T11:23:08.595Z,16.90
2019-05-22T11:25:38.981Z,17.00
2019-05-22T11:28:09.279Z,17.20
2019-05-22T11:30:40.591Z,17.20
2019-05-22T11:33:12.286Z,17.10
2019-05-22T11:35:43.377Z,17.40
2019-05-22T11:38:13.952Z,17.60
2019-05-22T11:40:44.685Z,17.80
2019-05-22T11:43:15.944Z,18.00
2019-05-22T11:45:46.313Z,18.30
2019-05-22T11:48:16.954Z,18.40
2019-05-22T11:50:47.329Z,18.60
2019-05-22T11:53:17.929Z,18.40
2019-05-22T11:55:48.846Z,18.20
2019-05-22T11:58:19.651Z,18.20
2019-05-22T12:00:51.200Z,18.20
2019-05-22T12:03:22.943Z,17.90
2019-05-22T12:05:54.676Z,17.60
2019-05-22T12:08:27.262Z,17.50
2019-05-22T12:10:59.938Z,17.60
2019-05-22T12:13:33.061Z,17.60
2019-05-22T12:16:06.437Z,17.60
2019-05-22T12:18:37.377Z,17.50
2019-05-22T12:21:08.033Z,17.50
2019-05-22T12:23:38.541Z,17.50
2019-05-22T12:26:11.133Z,17.60
2019-05-22T12:28:41.516Z,17.80
2019-05-22T12:31:12.295Z,17.90
2019-05-22T12:33:44.057Z,18.20
2019-05-22T12:36:14.789Z,18.10
2019-05-22T12:38:45.331Z,18.10
2019-05-22T12:41:18.376Z,17.90
2019-05-22T12:43:49.097Z,17.70
2019-05-22T12:46:20.942Z,17.60
2019-05-22T12:48:51.757Z,17.50
2019-05-22T12:51:22.212Z,17.60
2019-05-22T12:53:53.951Z,17.60
2019-05-22T12:56:24.650Z,17.60
2019-05-22T12:58:56.961Z,17.60
2019-05-22T13:01:30.209Z,17.60
2019-05-22T13:04:02.678Z,17.70
2019-05-22T13:06:34.543Z,17.80
2019-05-22T13:09:09.239Z,17.90
2019-05-22T13:11:40.929Z,18.00
2019-05-22T13:14:11.789Z,18.20
2019-05-22T13:16:48.330Z,18.40
2019-05-22T13:19:15.847Z,18.70
2019-05-22T13:21:47.949Z,18.90
2019-05-22T13:24:22.039Z,19.10
2019-05-22T13:26:53.192Z,19.20
2019-05-22T13:29:27.002Z,19.10
2019-05-22T13:31:58.015Z,19.00
2019-05-22T13:34:29.183Z,18.90
2019-05-22T13:37:00.069Z,18.70
2019-05-22T13:39:32.058Z,18.50
2019-05-22T13:42:02.481Z,18.40
2019-05-22T13:44:33.077Z,18.40
2019-05-22T13:47:04.296Z,18.60
2019-05-22T13:49:37.639Z,18.70
2019-05-22T13:52:08.106Z,18.70
2019-05-22T13:54:40.081Z,18.70
2019-05-22T13:57:12.527Z,18.70
2019-05-22T13:59:43.438Z,18.80
2019-05-22T14:02:14.199Z,18.90
2019-05-22T14:04:45.193Z,19.10
2019-05-22T14:07:16.501Z,19.30
2019-05-22T14:09:47.695Z,19.50
2019-05-22T14:12:18.817Z,19.80
2019-05-22T14:14:49.696Z,19.70
2019-05-22T14:17:20.062Z,19.60
2019-05-22T14:19:50.738Z,19.40
2019-05-22T14:22:21.322Z,19.20
2019-05-22T14:24:52.202Z,19.00
2019-05-22T14:27:23.201Z,19.00
2019-05-22T14:29:53.763Z,18.90
2019-05-22T14:32:29.847Z,18.90
2019-05-22T14:34:58.090Z,19.00
2019-05-22T14:37:29.642Z,19.00
2019-05-22T14:40:00.171Z,19.10
2019-05-22T14:42:30.675Z,19.10
2019-05-22T14:45:01.422Z,19.10
2019-05-22T14:47:31.905Z,19.10
2019-05-22T14:50:02.563Z,19.10
2019-05-22T14:52:34.973Z,19.00
2019-05-22T14:55:06.451Z,19.00
2019-05-22T14:57:37.889Z,18.90
2019-05-22T15:00:09.735Z,18.90
2019-05-22T15:02:40.440Z,18.80
2019-05-22T15:05:12.519Z,18.80
2019-05-22T15:07:43.037Z,18.80
2019-05-22T15:10:17.035Z,18.80
2019-05-22T15:12:48.935Z,18.90
2019-05-22T15:15:22.888Z,18.80
2019-05-22T15:17:53.239Z,18.90
2019-05-22T15:20:33.157Z,18.90
2019-05-22T15:23:04.425Z,18.90
2019-05-22T15:25:35.191Z,19.00
2019-05-22T15:28:06.551Z,19.00
2019-05-22T15:30:37.912Z,19.00
2019-05-22T15:33:09.222Z,19.00
2019-05-22T15:35:40.146Z,19.00
2019-05-22T15:38:12.729Z,18.90
2019-05-22T15:40:43.431Z,18.90
2019-05-22T15:43:16.810Z,18.70
2019-05-22T15:45:49.579Z,18.60
2019-05-22T15:48:31.855Z,18.60
2019-05-22T15:51:06.042Z,18.60
2019-05-22T15:53:40.754Z,18.60
2019-05-22T15:56:13.549Z,18.60
2019-05-22T15:58:49.165Z,18.50
2019-05-22T16:01:24.237Z,18.50
2019-05-22T16:03:56.095Z,18.60
2019-05-22T16:06:28.237Z,18.60
2019-05-22T16:08:59.818Z,18.60
2019-05-22T16:11:31.647Z,18.70
2019-05-22T16:14:03.578Z,18.70
2019-05-22T16:16:36.134Z,18.80
2019-05-22T16:19:09.108Z,19.00
2019-05-22T16:21:42.692Z,19.00
2019-05-22T16:24:13.858Z,19.20
2019-05-22T16:26:44.684Z,19.30
2019-05-22T16:29:16.137Z,19.40
2019-05-22T16:31:46.533Z,19.50
2019-05-22T16:34:19.888Z,19.40
2019-05-22T16:36:51.049Z,19.40
2019-05-22T16:39:23.827Z,19.30
2019-05-22T16:41:55.218Z,19.20
2019-05-22T16:44:26.191Z,19.10
2019-05-22T16:46:58.932Z,19.10
2019-05-22T16:49:29.825Z,19.00
2019-05-22T16:52:01.005Z,18.90
2019-05-22T16:54:33.677Z,18.90
2019-05-22T16:57:04.474Z,18.90
2019-05-22T16:59:37.272Z,18.90
2019-05-22T17:02:11.215Z,18.90
2019-05-22T17:04:41.946Z,18.80
2019-05-22T17:07:13.369Z,18.80
2019-05-22T17:09:44.762Z,18.70
2019-05-22T17:12:18.207Z,18.70
2019-05-22T17:14:49.774Z,18.60
2019-05-22T17:17:20.759Z,18.60
2019-05-22T17:19:52.185Z,18.50
2019-05-22T17:22:23.413Z,18.50
2019-05-22T17:24:54.158Z,18.50
2019-05-22T17:27:25.310Z,18.50
2019-05-22T17:29:57.044Z,18.40
2019-05-22T17:32:28.219Z,18.40
2019-05-22T17:35:00.186Z,18.30
2019-05-22T17:37:34.198Z,18.20
2019-05-22T17:40:06.983Z,18.20
2019-05-22T17:42:39.094Z,18.10
2019-05-22T17:45:11.582Z,18.10
2019-05-22T17:47:44.255Z,18.10
2019-05-22T17:50:26.577Z,18.00
2019-05-22T17:52:51.110Z,18.00
2019-05-22T17:55:23.520Z,17.90
2019-05-22T17:57:54.591Z,17.80
2019-05-22T18:00:35.419Z,17.70
2019-05-22T18:03:06.597Z,17.70
2019-05-22T18:05:37.373Z,17.60
2019-05-22T18:08:08.541Z,17.60
2019-05-22T18:10:40.932Z,17.50
2019-05-22T18:13:13.254Z,17.50
2019-05-22T18:15:44.088Z,17.50
2019-05-22T18:18:15.466Z,17.40
2019-05-22T18:20:46.390Z,17.30
2019-05-22T18:23:16.897Z,17.30
2019-05-22T18:25:47.768Z,17.30
2019-05-22T18:28:19.486Z,17.20
2019-05-22T18:30:50.559Z,17.20
2019-05-22T18:33:20.964Z,17.10
2019-05-22T18:35:51.967Z,17.10
2019-05-22T18:38:22.397Z,17.00
2019-05-22T18:40:52.780Z,17.00
2019-05-22T18:43:23.323Z,17.00
2019-05-22T18:45:54.194Z,16.90
2019-05-22T18:48:24.540Z,16.90
2019-05-22T18:50:54.914Z,16.80
2019-05-22T18:53:28.794Z,16.80
2019-05-22T18:55:59.897Z,16.80
2019-05-22T18:58:30.360Z,16.70
2019-05-22T19:01:00.731Z,16.70
2019-05-22T19:03:31.484Z,16.70
2019-05-22T19:06:02.918Z,16.70
2019-05-22T19:08:34.034Z,16.70
2019-05-22T19:11:04.463Z,16.60
2019-05-22T19:13:34.970Z,16.60
2019-05-22T19:16:06.903Z,16.60
2019-05-22T19:18:37.632Z,16.50
2019-05-22T19:21:10.587Z,16.50
2019-05-22T19:23:41.496Z,16.50
2019-05-22T19:26:11.835Z,16.50
2019-05-22T19:28:44.386Z,16.50
2019-05-22T19:31:15.124Z,16.40
2019-05-22T19:33:46.058Z,16.40
2019-05-22T19:36:16.642Z,16.30
2019-05-22T19:38:47.137Z,16.30
2019-05-22T19:41:17.923Z,16.30
2019-05-22T19:43:48.821Z,16.30
2019-05-22T19:46:20.251Z,16.30
2019-05-22T19:48:50.753Z,16.20
2019-05-22T19:51:21.312Z,16.20
2019-05-22T19:53:52.474Z,16.20
2019-05-22T19:56:24.123Z,16.20
2019-05-22T19:58:54.920Z,16.20
2019-05-22T20:01:26.740Z,16.20
2019-05-22T20:03:57.218Z,16.10
2019-05-22T20:06:28.166Z,16.10
2019-05-22T20:08:59.181Z,16.00
2019-05-22T20:11:30.156Z,16.00
2019-05-22T20:14:01.856Z,16.00
2019-05-22T20:16:32.725Z,15.90
2019-05-22T20:19:04.558Z,15.80
2019-05-22T20:21:35.634Z,15.80
2019-05-22T20:24:07.948Z,15.80
2019-05-22T20:26:38.547Z,15.70
2019-05-22T20:29:09.565Z,15.70
2019-05-22T20:31:39.896Z,15.60
2019-05-22T20:34:10.536Z,15.60
2019-05-22T20:36:42.240Z,15.60
2019-05-22T20:39:20.374Z,15.60
2019-05-22T20:41:51.444Z,15.50
2019-05-22T20:44:23.002Z,15.50
2019-05-22T20:46:53.742Z,15.40
2019-05-22T20:49:25.214Z,15.40
2019-05-22T20:51:56.970Z,15.40
2019-05-22T20:54:28.473Z,15.40
2019-05-22T20:57:00.855Z,15.40
2019-05-22T20:59:31.892Z,15.30
2019-05-22T21:02:02.556Z,15.30
2019-05-22T21:04:35.155Z,15.30
2019-05-22T21:07:09.324Z,15.30
2019-05-22T21:09:39.930Z,15.20
2019-05-22T21:12:12.553Z,15.20
2019-05-22T21:14:43.782Z,15.20
2019-05-22T21:17:16.172Z,15.10
2019-05-22T21:19:47.572Z,15.10
2019-05-22T21:22:22.949Z,15.10
2019-05-22T21:24:54.192Z,15.10
2019-05-22T21:27:25.239Z,15.10
2019-05-22T21:29:56.215Z,15.10
2019-05-22T21:32:27.802Z,15.00
2019-05-22T21:35:00.370Z,15.00
2019-05-22T21:37:32.312Z,14.90
2019-05-22T21:40:03.590Z,14.90
2019-05-22T21:42:36.521Z,14.80
2019-05-22T21:45:08.026Z,14.80
2019-05-22T21:47:38.520Z,14.80
2019-05-22T21:50:10.404Z,14.70
2019-05-22T21:52:41.288Z,14.70
2019-05-22T21:55:13.072Z,14.70
2019-05-22T21:57:45.642Z,14.70
2019-05-22T22:00:22.259Z,14.70
2019-05-22T22:02:53.164Z,14.70
2019-05-22T22:05:23.824Z,14.60
2019-05-22T22:07:54.920Z,14.60
2019-05-22T22:10:25.472Z,14.60
2019-05-22T22:12:57.024Z,14.60
2019-05-22T22:15:28.087Z,14.60
2019-05-22T22:17:58.880Z,14.60
2019-05-22T22:20:29.739Z,14.60
2019-05-22T22:23:00.568Z,14.60
2019-05-22T22:25:31.723Z,14.60
2019-05-22T22:28:02.526Z,14.60
2019-05-22T22:30:43.627Z,14.60
2019-05-22T22:33:16.790Z,14.60
2019-05-22T22:35:47.632Z,14.60
2019-05-22T22:38:21.545Z,14.60
2019-05-22T22:40:53.945Z,14.60
2019-05-22T22:43:27.836Z,14.60
2019-05-22T22:46:06.685Z,14.60
2019-05-22T22:48:39.047Z,14.60
2019-05-22T22:51:12.114Z,14.60
2019-05-22T22:53:43.795Z,14.70
2019-05-22T22:56:17.115Z,14.60
2019-05-22T22:58:48.579Z,14.60
2019-05-22T23:01:26.103Z,14.60
2019-05-22T23:04:01.049Z,14.60
2019-05-22T23:06:35.900Z,14.60
2019-05-22T23:09:07.623Z,14.60
2019-05-22T23:11:41.797Z,14.60
2019-05-22T23:14:13.060Z,14.60
2019-05-22T23:16:43.448Z,14.60
2019-05-22T23:19:32.793Z,14.60
2019-05-22T23:22:03.511Z,14.50
2019-05-22T23:24:37.737Z,14.50
2019-05-22T23:27:09.409Z,14.50
2019-05-22T23:29:40.588Z,14.50
2019-05-22T23:32:14.251Z,14.50
2019-05-22T23:34:47.333Z,14.40
2019-05-22T23:37:21.221Z,14.40
2019-05-22T23:39:54.088Z,14.30
2019-05-22T23:42:33.636Z,14.30
2019-05-22T23:45:07.109Z,14.30
2019-05-22T23:48:14.719Z,14.30
2019-05-22T23:50:47.487Z,14.30
2019-05-22T23:53:18.688Z,14.30
2019-05-22T23:55:50.051Z,14.30
2019-05-22T23:58:23.139Z,14.30
